Time;durP1;ratioP1;P1;durP2;ratioP2;P2;SDS_P1;SDS_P2;PMS_P1;PMS_P2;Temp;Humidity;BMP_temperature;BMP_pressure;BME280_temperature;BME280_humidity;BME280_pressure;Samples;Min_cycle;Max_cycle;Signal;HPM_P1;HPM_P2
2023/01/18 00:01:53;;;;;;;5.95;3.05;;;;;;;-2.44;100.00;92575.91;5048290;28;20091;-77
2023/01/18 00:04:18;;;;;;;9.38;2.90;;;;;;;-2.41;100.00;92584.94;5044111;28;20044;-76
2023/01/18 00:06:44;;;;;;;5.63;2.72;;;;;;;-2.50;100.00;92586.47;5051705;28;20048;-75
2023/01/18 00:09:10;;;;;;;5.18;2.78;;;;;;;-2.59;100.00;92588.78;5040427;28;20041;-76
2023/01/18 00:11:37;;;;;;;4.72;2.55;;;;;;;-2.59;100.00;92575.16;5044003;28;20494;-76
2023/01/18 00:14:02;;;;;;;5.65;2.65;;;;;;;-2.70;100.00;92572.59;5041607;28;20047;-75
2023/01/18 00:16:29;;;;;;;4.60;2.35;;;;;;;-2.72;100.00;92573.88;5047129;28;20045;-77
2023/01/18 00:18:56;;;;;;;3.95;2.50;;;;;;;-2.81;100.00;92578.78;5044653;28;20037;-76
2023/01/18 00:21:23;;;;;;;7.72;2.80;;;;;;;-2.84;100.00;92574.91;5044468;28;20041;-76
2023/01/18 00:23:50;;;;;;;5.70;2.88;;;;;;;-2.87;100.00;92567.72;5041805;28;20048;-77
2023/01/18 00:26:16;;;;;;;5.57;2.65;;;;;;;-2.85;100.00;92572.59;5047020;28;20684;-76
2023/01/18 00:28:41;;;;;;;5.32;2.67;;;;;;;-2.90;100.00;92567.44;5045320;28;20071;-76
2023/01/18 00:31:18;;;;;;;7.55;2.85;;;;;;;-2.86;100.00;92568.47;5048829;28;20064;-76
2023/01/18 00:33:45;;;;;;;7.38;3.38;;;;;;;-2.91;100.00;92560.78;5044099;28;20124;-75
2023/01/18 00:36:12;;;;;;;5.35;2.50;;;;;;;-2.88;100.00;92570.53;5050283;28;20041;-76
2023/01/18 00:38:37;;;;;;;4.40;2.60;;;;;;;-2.94;100.00;92566.41;5048745;28;20049;-76
2023/01/18 00:41:03;;;;;;;8.20;2.50;;;;;;;-3.01;100.00;92567.44;5048368;28;20123;-77
2023/01/18 00:43:38;;;;;;;5.00;2.38;;;;;;;-3.09;100.00;92557.66;5048043;28;20491;-76
2023/01/18 00:46:07;;;;;;;4.82;2.53;;;;;;;-3.16;100.00;92554.56;5048234;28;20033;-77
2023/01/18 00:48:33;;;;;;;7.63;2.83;;;;;;;-3.21;100.00;92554.59;5050910;28;20037;-76
2023/01/18 00:50:59;;;;;;;6.95;3.00;;;;;;;-3.19;100.00;92555.88;5047929;28;20037;-76
2023/01/18 00:53:24;;;;;;;5.35;2.58;;;;;;;-3.15;100.00;92561.28;5049995;28;20094;-76
2023/01/18 00:55:50;;;;;;;7.18;2.80;;;;;;;-3.15;100.00;92556.13;5046789;28;20056;-77
2023/01/18 00:58:15;;;;;;;5.82;2.60;;;;;;;-3.14;100.00;92565.41;5050714;28;20387;-77
2023/01/18 01:00:41;;;;;;;4.32;2.65;;;;;;;-3.21;100.00;92557.16;5042340;28;20037;-77
2023/01/18 01:03:07;;;;;;;6.85;3.35;;;;;;;-3.25;100.00;92556.13;5049068;28;20483;-76
2023/01/18 01:08:17;;;;;;;5.32;2.53;;;;;;;-3.19;100.00;92555.09;5049792;28;20519;-75
2023/01/18 01:10:48;;;;;;;6.32;2.72;;;;;;;-3.23;100.00;92560.00;5051221;28;20045;-77
2023/01/18 01:27:10;;;;;;;7.20;2.72;;;;;;;-3.38;100.00;92572.81;5047070;28;20037;-76
2023/01/18 01:29:36;;;;;;;4.65;2.65;;;;;;;-3.34;100.00;92579.00;5042937;28;20072;-76
2023/01/18 01:32:02;;;;;;;12.82;2.60;;;;;;;-3.34;100.00;92579.75;5050158;28;20400;-77
2023/01/18 01:34:28;;;;;;;4.43;2.53;;;;;;;-3.34;100.00;92579.75;5047442;28;20495;-77
2023/01/18 01:36:55;;;;;;;4.72;2.28;;;;;;;-3.30;100.00;92585.19;5046205;28;20053;-77
2023/01/18 01:39:20;;;;;;;7.10;2.65;;;;;;;-3.32;100.00;92585.44;5046216;28;20511;-77
2023/01/18 01:41:46;;;;;;;5.22;2.20;;;;;;;-3.35;100.00;92593.66;5048986;28;20040;-76
2023/01/18 01:44:18;;;;;;;4.20;2.13;;;;;;;-3.27;100.00;92589.06;5044983;28;20126;-78
2023/01/18 01:46:54;;;;;;;4.00;2.65;;;;;;;-3.20;100.00;92594.72;5048120;28;20095;-77
2023/01/18 01:49:31;;;;;;;4.65;2.40;;;;;;;-3.34;100.00;92590.06;5041005;28;20032;-77
2023/01/18 01:52:02;;;;;;;6.35;2.80;;;;;;;-3.20;100.00;92597.28;5047114;28;20036;-77
2023/01/18 01:54:36;;;;;;;5.30;2.28;;;;;;;-3.19;100.00;92601.38;5049999;28;20037;-76
2023/01/18 01:57:24;;;;;;;6.20;2.40;;;;;;;-3.14;100.00;92598.84;5043461;28;20053;-75
2023/01/18 02:00:09;;;;;;;5.35;2.55;;;;;;;-3.07;100.00;92614.78;5040928;28;20071;-77
2023/01/18 02:02:37;;;;;;;5.50;2.53;;;;;;;-3.02;100.00;92617.34;5047706;28;20041;-77
2023/01/18 02:05:05;;;;;;;5.78;2.67;;;;;;;-2.97;100.00;92622.53;5038503;28;20049;-75
2023/01/18 02:07:32;;;;;;;6.68;2.15;;;;;;;-2.87;100.00;92624.34;5045447;28;20041;-76
2023/01/18 02:10:00;;;;;;;5.45;2.45;;;;;;;-2.80;100.00;92629.25;5039195;28;20033;-76
2023/01/18 02:12:28;;;;;;;6.85;2.53;;;;;;;-2.73;100.00;92624.59;5045914;28;20094;-75
2023/01/18 02:14:55;;;;;;;3.20;2.15;;;;;;;-2.65;100.00;92629.22;5041423;28;20037;-77
2023/01/18 02:17:30;;;;;;;5.28;2.53;;;;;;;-2.55;100.00;92635.41;5042754;28;20041;-77
2023/01/18 02:20:20;;;;;;;4.68;2.40;;;;;;;-2.42;100.00;92639.28;5043016;28;20498;-77
2023/01/18 02:23:10;;;;;;;3.53;2.10;;;;;;;-2.24;100.00;92650.81;5043756;28;20041;-74
2023/01/18 02:25:55;;;;;;;5.28;2.60;;;;;;;-1.97;100.00;92646.16;5047520;28;20388;-76
2023/01/18 02:28:36;;;;;;;4.57;2.20;;;;;;;-1.90;100.00;92650.25;5042785;28;20431;-75
2023/01/18 02:31:20;;;;;;;3.70;2.10;;;;;;;-1.73;100.00;92655.88;5041574;28;20064;-75
2023/01/18 02:34:19;;;;;;;3.08;1.90;;;;;;;-1.60;100.00;92655.31;5048862;28;20150;-75
2023/01/18 02:36:50;;;;;;;3.45;2.00;;;;;;;-1.46;100.00;92659.94;5047123;28;20041;-74
2023/01/18 02:39:37;;;;;;;3.83;2.08;;;;;;;-1.35;100.00;92666.59;5049083;28;20043;-73
2023/01/18 02:48:10;;;;;;;3.60;2.00;;;;;;;-1.33;100.00;92669.66;5039985;28;20418;-76
2023/01/18 02:50:36;;;;;;;6.50;2.13;;;;;;;-1.32;100.00;92666.06;5044246;28;20068;-75
2023/01/18 02:53:01;;;;;;;4.75;2.17;;;;;;;-1.15;100.00;92675.25;5044916;28;20037;-76
2023/01/18 02:55:38;;;;;;;4.13;2.15;;;;;;;-1.24;100.00;92662.91;5046711;28;20151;-75
2023/01/18 02:58:11;;;;;;;4.35;1.90;;;;;;;-1.17;100.00;92667.03;5045644;28;20395;-75
2023/01/18 03:00:42;;;;;;;3.92;1.85;;;;;;;-1.12;100.00;92664.41;5046064;28;20037;-74
2023/01/18 03:03:10;;;;;;;3.50;1.77;;;;;;;-0.98;100.00;92669.75;5044894;28;20073;-76
2023/01/18 03:05:37;;;;;;;2.15;1.60;;;;;;;-0.97;100.00;92672.06;5050204;28;21997;-76
2023/01/18 03:08:23;;;;;;;2.55;1.60;;;;;;;-0.77;100.00;92675.56;5045123;28;20036;-75
2023/01/18 03:10:58;;;;;;;4.70;1.95;;;;;;;-0.84;100.00;92664.78;5050267;28;20037;-76
2023/01/18 03:13:50;;;;;;;6.18;2.00;;;;;;;-0.84;100.00;92669.94;5040787;28;20482;-76
2023/01/18 03:16:25;;;;;;;3.80;1.77;;;;;;;-0.72;100.00;92667.78;5048439;28;20558;-76
2023/01/18 03:19:01;;;;;;;2.10;1.60;;;;;;;-0.83;100.00;92671.47;5044066;28;20143;-76
2023/01/18 03:21:41;;;;;;;2.17;1.67;;;;;;;-0.90;100.00;92672.53;5044693;28;20037;-75
2023/01/18 03:24:09;;;;;;;2.55;1.60;;;;;;;-0.98;100.00;92669.75;5052920;28;20033;-77
2023/01/18 03:26:40;;;;;;;2.88;1.60;;;;;;;-0.99;100.00;92673.38;5049023;28;20110;-76
2023/01/18 03:35:08;;;;;;;3.05;1.85;;;;;;;-1.15;100.00;92675.25;5048512;28;20037;-76
2023/01/18 03:37:38;;;;;;;2.70;1.58;;;;;;;-1.12;100.00;92682.47;5052450;28;20051;-76
2023/01/18 03:40:27;;;;;;;3.30;1.75;;;;;;;-1.27;100.00;92678.16;5045481;28;20384;-76
2023/01/18 03:43:06;;;;;;;3.38;1.80;;;;;;;-1.53;100.00;92674.91;5047845;28;20400;-77
2023/01/18 03:45:38;;;;;;;4.68;1.67;;;;;;;-1.53;100.00;92674.91;5048598;28;20087;-74
2023/01/18 03:48:06;;;;;;;3.28;1.70;;;;;;;-1.62;100.00;92683.19;5048837;28;20041;-77
2023/01/18 03:50:51;;;;;;;2.13;1.50;;;;;;;-1.39;100.00;92678.47;5048521;28;20048;-75
2023/01/18 03:53:37;;;;;;;3.10;1.70;;;;;;;-1.50;100.00;92689.84;5044504;28;20033;-76
2023/01/18 03:56:20;;;;;;;2.47;1.60;;;;;;;-1.62;100.00;92688.34;5046404;28;20435;-75
2023/01/18 03:58:50;;;;;;;4.82;1.80;;;;;;;-1.61;100.00;92689.91;5047805;28;20036;-76
2023/01/18 04:01:15;;;;;;;2.92;1.70;;;;;;;-1.75;100.00;92694.06;5042119;28;20044;-76
2023/01/18 04:03:41;;;;;;;4.97;1.73;;;;;;;-1.85;100.00;92684.53;5051705;28;20041;-76
2023/01/18 04:06:07;;;;;;;1.98;1.40;;;;;;;-1.82;100.00;92689.16;5050902;28;20048;-75
2023/01/18 04:08:32;;;;;;;3.45;1.73;;;;;;;-1.86;100.00;92687.38;5049013;28;20112;-74
2023/01/18 04:10:58;;;;;;;3.15;1.52;;;;;;;-1.55;100.00;92689.84;5049124;28;20037;-76
2023/01/18 04:13:23;;;;;;;2.08;1.52;;;;;;;-1.35;100.00;92687.22;5042932;28;20448;-74
2023/01/18 04:15:49;;;;;;;3.22;1.80;;;;;;;-1.17;100.00;92687.66;5050461;28;20045;-74
2023/01/18 04:18:15;;;;;;;2.38;1.60;;;;;;;-0.88;100.00;92685.97;5050397;28;20090;-74
2023/01/18 04:20:40;;;;;;;2.60;1.80;;;;;;;-0.86;100.00;92683.13;5048715;28;20041;-75
2023/01/18 04:23:06;;;;;;;2.33;1.50;;;;;;;-0.81;100.00;92682.31;5047389;28;20029;-75
2023/01/18 04:25:31;;;;;;;3.90;1.85;;;;;;;-0.73;100.00;92681.75;5044989;28;20041;-75
2023/01/18 04:27:57;;;;;;;3.60;1.63;;;;;;;-0.85;100.00;92673.56;5042273;28;20040;-74
2023/01/18 04:30:22;;;;;;;3.63;1.67;;;;;;;-0.75;100.00;92673.50;5042305;28;20033;-74
2023/01/18 04:32:48;;;;;;;3.33;1.92;;;;;;;-0.78;100.00;92663.69;5046571;28;20048;-74
2023/01/18 04:35:14;;;;;;;4.10;1.75;;;;;;;-0.81;100.00;92669.41;5049941;28;20041;-75
2023/01/18 04:37:39;;;;;;;3.88;1.60;;;;;;;-0.90;100.00;92661.44;5048526;28;20053;-74
2023/01/18 04:40:05;;;;;;;2.28;1.52;;;;;;;-0.83;100.00;92661.13;5047305;28;20037;-75
2023/01/18 04:42:31;;;;;;;2.08;1.48;;;;;;;-1.02;100.00;92653.25;5045221;28;20041;-75
2023/01/18 04:44:58;;;;;;;2.53;1.55;;;;;;;-1.00;100.00;92654.53;5047355;28;20091;-74
2023/01/18 04:47:27;;;;;;;2.88;1.60;;;;;;;-0.87;100.00;92661.69;5040858;28;20037;-74
2023/01/18 04:49:53;;;;;;;3.05;1.77;;;;;;;-0.77;100.00;92660.09;5050545;28;20513;-76
2023/01/18 04:52:19;;;;;;;2.58;1.60;;;;;;;-0.71;100.00;92659.00;5040512;28;20041;-76
2023/01/18 04:54:44;;;;;;;3.15;1.75;;;;;;;-0.57;100.00;92670.25;5046853;28;20087;-75
2023/01/18 04:57:10;;;;;;;1.92;1.30;;;;;;;-0.43;100.00;92660.09;5043081;28;20052;-75
2023/01/18 04:59:38;;;;;;;3.05;1.38;;;;;;;-0.18;100.00;92661.69;5047622;28;20519;-75
2023/01/18 05:02:03;;;;;;;1.55;1.02;;;;;;;-0.10;100.00;92662.13;5048796;28;20044;-74
2023/01/18 05:04:29;;;;;;;1.65;1.10;;;;;;;0.04;100.00;92657.88;5049623;28;20041;-75
2023/01/18 05:06:55;;;;;;;1.67;1.23;;;;;;;0.07;100.00;92647.00;5046949;28;20041;-75
2023/01/18 05:09:20;;;;;;;2.25;1.23;;;;;;;0.21;100.00;92651.53;5046153;28;20048;-75
2023/01/18 05:11:46;;;;;;;1.00;0.77;;;;;;;0.37;100.00;92650.28;5050325;28;20048;-77
2023/01/18 05:14:12;;;;;;;2.83;1.17;;;;;;;0.39;100.00;92653.41;5038191;28;20041;-76
2023/01/18 05:16:38;;;;;;;2.10;1.20;;;;;;;0.51;100.00;92663.34;5048845;28;20576;-76
2023/01/18 05:19:03;;;;;;;3.60;1.30;;;;;;;0.59;100.00;92667.13;5049069;28;20041;-77
2023/01/18 05:21:29;;;;;;;2.17;1.25;;;;;;;0.60;100.00;92668.69;5049925;28;20037;-76
2023/01/18 05:23:54;;;;;;;1.85;1.30;;;;;;;0.44;100.00;92671.44;5046739;28;20060;-76
2023/01/18 05:26:22;;;;;;;1.10;1.00;;;;;;;0.43;100.00;92675.09;5045104;28;20072;-76
2023/01/18 05:28:49;;;;;;;1.77;1.20;;;;;;;0.51;100.00;92689.97;5049613;28;20087;-76
2023/01/18 05:31:17;;;;;;;1.65;1.30;;;;;;;0.56;100.00;92688.41;5047171;28;20048;-76
2023/01/18 05:33:42;;;;;;;4.22;1.50;;;;;;;0.51;100.00;92692.56;5047424;28;20071;-76
2023/01/18 05:36:08;;;;;;;2.05;1.48;;;;;;;0.48;100.00;92690.53;5047660;28;20155;-75
2023/01/18 05:38:34;;;;;;;3.03;1.52;;;;;;;0.51;100.00;92702.16;5049378;28;20060;-76
2023/01/18 05:41:00;;;;;;;1.88;1.40;;;;;;;0.47;100.00;92716.69;5046602;28;20040;-77
2023/01/18 05:43:27;;;;;;;5.47;1.58;;;;;;;0.40;100.00;92709.25;5043136;28;20483;-74
2023/01/18 05:45:53;;;;;;;5.72;1.63;;;;;;;0.34;100.00;92710.34;5048846;28;20426;-76
2023/01/18 05:48:19;;;;;;;2.45;1.58;;;;;;;0.28;100.00;92714.81;5047018;28;20045;-76
2023/01/18 05:50:47;;;;;;;3.10;1.80;;;;;;;0.33;100.00;92721.72;5049175;28;20418;-76
2023/01/18 05:53:15;;;;;;;3.45;1.60;;;;;;;0.47;100.00;92717.44;5030980;28;20072;-76
2023/01/18 05:55:42;;;;;;;2.97;1.70;;;;;;;0.47;100.00;92722.63;5045356;28;20048;-75
2023/01/18 05:58:07;;;;;;;3.58;1.77;;;;;;;0.30;100.00;92717.91;5045049;28;20506;-75
2023/01/18 06:00:33;;;;;;;4.22;1.58;;;;;;;0.41;100.00;92728.91;5045704;28;20037;-76
2023/01/18 06:02:59;;;;;;;5.25;1.90;;;;;;;0.50;100.00;92727.28;5049062;28;20045;-77
2023/01/18 06:05:25;;;;;;;2.65;1.50;;;;;;;0.41;100.00;92726.31;5046811;28;20049;-77
2023/01/18 06:07:51;;;;;;;2.35;1.38;;;;;;;0.42;100.00;92740.81;5045656;28;20095;-75
2023/01/18 06:10:17;;;;;;;3.20;1.80;;;;;;;0.42;100.00;92751.16;5049575;28;20041;-76
2023/01/18 06:12:43;;;;;;;2.15;1.60;;;;;;;0.48;100.00;92755.22;5041623;28;20561;-75
2023/01/18 06:15:10;;;;;;;3.38;1.77;;;;;;;0.45;100.00;92755.78;5037493;28;20084;-77
2023/01/18 06:17:36;;;;;;;2.95;1.80;;;;;;;0.48;100.00;92759.63;5043533;28;20044;-77
2023/01/18 06:20:04;;;;;;;5.72;1.80;;;;;;;0.57;100.00;92767.56;5049658;28;20037;-77
2023/01/18 06:22:30;;;;;;;4.72;1.50;;;;;;;0.55;100.00;92769.66;5045229;28;20044;-75
2023/01/18 06:24:56;;;;;;;3.05;1.67;;;;;;;0.47;100.00;92779.56;5053936;28;20033;-76
2023/01/18 06:27:21;;;;;;;3.83;1.85;;;;;;;0.41;100.00;92770.31;5037636;28;20520;-77
2023/01/18 06:29:47;;;;;;;3.70;1.80;;;;;;;0.36;100.00;92780.72;5040292;28;20063;-78
2023/01/18 06:32:12;;;;;;;4.13;1.77;;;;;;;0.36;100.00;92783.31;5046192;28;20589;-77
2023/01/18 06:34:38;;;;;;;3.10;2.10;;;;;;;0.32;100.00;92782.28;5047596;28;20053;-75
2023/01/18 06:37:04;;;;;;;2.58;1.75;;;;;;;0.32;100.00;92787.47;5036791;28;20052;-77
2023/01/18 06:39:29;;;;;;;3.33;1.88;;;;;;;0.25;100.00;92787.00;5042308;28;20518;-77
2023/01/18 06:41:56;;;;;;;3.47;1.92;;;;;;;0.19;100.00;92782.91;5048515;28;20487;-75
2023/01/18 06:44:21;;;;;;;3.95;1.70;;;;;;;0.19;100.00;92782.91;5046252;28;20430;-78
2023/01/18 06:46:47;;;;;;;2.33;1.58;;;;;;;0.14;100.00;92784.50;5044947;28;20041;-78
2023/01/18 06:49:13;;;;;;;4.20;2.05;;;;;;;0.10;100.00;92785.31;5043548;28;20180;-72
2023/01/18 06:51:39;;;;;;;2.75;1.80;;;;;;;0.09;100.00;92784.53;5040544;28;20116;-75
2023/01/18 06:54:06;;;;;;;2.80;1.50;;;;;;;0.06;100.00;92795.44;5039865;28;20101;-74
2023/01/18 06:56:31;;;;;;;3.38;1.83;;;;;;;-0.02;100.00;92793.41;5047067;28;20171;-73
2023/01/18 06:58:59;;;;;;;1.98;1.40;;;;;;;0.07;100.00;92796.97;5033712;28;20103;-74
2023/01/18 07:01:24;;;;;;;2.70;1.67;;;;;;;0.21;100.00;92817.03;5043303;28;20060;-76
2023/01/18 07:03:51;;;;;;;5.95;1.60;;;;;;;0.09;100.00;92815.56;5044529;28;20041;-77
2023/01/18 07:06:16;;;;;;;2.40;1.73;;;;;;;0.11;100.00;92813.47;5050238;28;20048;-77
2023/01/18 07:08:42;;;;;;;2.40;1.55;;;;;;;0.07;100.00;92812.50;5047775;28;20053;-76
2023/01/18 07:11:10;;;;;;;3.28;1.80;;;;;;;0.13;100.00;92815.78;5041252;28;20041;-77
2023/01/18 07:13:39;;;;;;;3.78;1.80;;;;;;;0.23;100.00;92820.13;5043603;28;20095;-77
2023/01/18 07:16:07;;;;;;;2.53;1.50;;;;;;;0.21;100.00;92817.03;5046810;28;20041;-78
2023/01/18 07:18:33;;;;;;;2.63;1.63;;;;;;;0.11;100.00;92834.16;5047075;28;20041;-77
2023/01/18 07:21:05;;;;;;;2.45;1.45;;;;;;;0.11;100.00;92834.16;5047381;28;20499;-76
2023/01/18 07:23:37;;;;;;;2.83;1.60;;;;;;;0.14;100.00;92828.47;5048703;28;20094;-76
2023/01/18 07:26:05;;;;;;;2.53;1.63;;;;;;;0.25;100.00;92833.56;5045022;28;20049;-76
2023/01/18 07:28:31;;;;;;;2.42;1.65;;;;;;;0.33;100.00;92845.91;5043400;28;20037;-77
2023/01/18 07:30:58;;;;;;;3.13;1.80;;;;;;;0.34;100.00;92857.81;5046105;28;20036;-78
2023/01/18 07:33:23;;;;;;;3.20;1.33;;;;;;;0.40;100.00;92851.53;5042855;28;20037;-77
2023/01/18 07:35:54;;;;;;;3.90;1.83;;;;;;;0.37;100.00;92851.31;5042662;28;20048;-78
2023/01/18 07:38:21;;;;;;;3.90;1.70;;;;;;;0.41;100.00;92853.09;5045749;28;20518;-78
2023/01/18 07:40:46;;;;;;;4.55;1.52;;;;;;;0.47;100.00;92857.19;5048288;28;20124;-78
2023/01/18 07:43:14;;;;;;;2.10;1.50;;;;;;;0.54;100.00;92866.47;5043666;28;20568;-77
2023/01/18 07:45:39;;;;;;;3.08;1.50;;;;;;;0.59;100.00;92861.22;5057643;28;20076;-77
2023/01/18 07:48:05;;;;;;;2.55;1.60;;;;;;;0.51;100.00;92858.19;5049113;28;20498;-78
2023/01/18 07:50:32;;;;;;;3.58;1.30;;;;;;;0.64;100.00;92863.78;5042608;28;20053;-76
2023/01/18 07:53:03;;;;;;;3.00;1.42;;;;;;;0.67;100.00;92866.59;5047869;28;20044;-75
2023/01/18 07:55:31;;;;;;;4.45;1.80;;;;;;;0.69;100.00;92874.88;5044464;28;20045;-77
2023/01/18 07:57:58;;;;;;;3.38;1.70;;;;;;;0.67;100.00;92881.38;5048459;28;20055;-77
2023/01/18 08:00:24;;;;;;;2.53;1.58;;;;;;;0.76;100.00;92879.75;5052511;28;20045;-74
2023/01/18 08:02:51;;;;;;;2.40;1.15;;;;;;;0.81;100.00;92887.44;5054578;28;20045;-75
2023/01/18 08:05:22;;;;;;;2.65;1.63;;;;;;;0.80;100.00;92885.13;5053592;28;20033;-77
2023/01/18 08:07:54;;;;;;;1.58;1.05;;;;;;;0.89;100.00;92882.72;5047714;28;20033;-76
2023/01/18 08:10:20;;;;;;;2.38;1.50;;;;;;;0.94;100.00;92895.66;5043040;28;20420;-76
2023/01/18 08:12:46;;;;;;;1.83;1.25;;;;;;;1.08;100.00;92896.53;5044204;28;20524;-78
2023/01/18 08:15:12;;;;;;;3.72;1.20;;;;;;;1.19;100.00;92900.59;5041258;28;20099;-76
2023/01/18 08:17:37;;;;;;;1.42;0.98;;;;;;;1.25;100.00;92905.69;5042418;28;20445;-75
2023/01/18 08:20:04;;;;;;;2.47;1.35;;;;;;;1.21;100.00;92895.88;5040675;28;20041;-74
2023/01/18 08:22:31;;;;;;;2.88;1.40;;;;;;;1.28;100.00;92897.38;5037600;28;20111;-74
2023/01/18 08:24:56;;;;;;;2.88;1.55;;;;;;;1.26;100.00;92902.06;5045079;28;20033;-76
2023/01/18 08:27:22;;;;;;;2.50;1.20;;;;;;;1.30;100.00;92905.66;5041707;28;20107;-75
2023/01/18 08:29:48;;;;;;;2.13;1.30;;;;;;;1.38;100.00;92910.25;5051017;28;20037;-75
2023/01/18 08:32:14;;;;;;;2.00;1.23;;;;;;;1.37;100.00;92916.47;5040708;28;20112;-75
2023/01/18 08:34:39;;;;;;;2.15;1.38;;;;;;;1.40;100.00;92918.50;5041536;28;20396;-75
2023/01/18 08:37:05;;;;;;;3.53;1.50;;;;;;;1.49;100.00;92926.44;5050202;28;20119;-74
2023/01/18 08:39:30;;;;;;;2.05;1.40;;;;;;;1.41;100.00;92925.25;5042161;28;20045;-75
2023/01/18 08:41:56;;;;;;;2.25;1.35;;;;;;;1.51;100.00;92951.03;5038900;28;20112;-75
2023/01/18 08:44:22;;;;;;;2.28;1.50;;;;;;;1.62;100.00;92950.94;5038414;28;20103;-75
2023/01/18 08:46:48;;;;;;;3.38;1.27;;;;;;;1.63;100.00;92952.50;5035214;28;20099;-74
2023/01/18 08:49:15;;;;;;;3.58;1.50;;;;;;;1.66;100.00;92957.13;5048598;28;20461;-75
2023/01/18 08:51:41;;;;;;;3.92;1.40;;;;;;;1.71;100.00;92964.81;5046413;28;20033;-76
2023/01/18 08:54:07;;;;;;;1.52;1.30;;;;;;;1.84;100.00;92964.19;5037786;28;20115;-76
2023/01/18 08:56:33;;;;;;;4.45;1.23;;;;;;;1.85;100.00;92970.91;5046268;28;20508;-77
2023/01/18 08:58:58;;;;;;;2.22;1.27;;;;;;;2.03;100.00;92976.41;5045108;28;20048;-75
2023/01/18 09:01:24;;;;;;;1.60;1.30;;;;;;;2.03;100.00;92976.41;5048245;28;20502;-77
2023/01/18 09:03:54;;;;;;;2.08;1.20;;;;;;;2.14;100.00;92988.22;5051225;28;20041;-76
2023/01/18 09:06:20;;;;;;;4.30;1.20;;;;;;;1.96;100.00;92976.75;5046869;28;20044;-77
2023/01/18 09:08:46;;;;;;;3.17;1.40;;;;;;;1.99;100.00;92983.22;5047783;28;20045;-76
2023/01/18 09:11:12;;;;;;;1.58;1.13;;;;;;;2.01;100.00;92994.06;5045925;28;20505;-76
2023/01/18 09:13:40;;;;;;;4.32;1.83;;;;;;;1.93;100.00;92989.50;5048440;28;20045;-77
2023/01/18 09:16:08;;;;;;;4.00;1.17;;;;;;;1.98;100.00;92994.63;5039877;28;20041;-74
2023/01/18 09:18:35;;;;;;;1.95;1.30;;;;;;;1.94;100.00;92998.81;5048111;28;20503;-78
2023/01/18 09:21:08;;;;;;;4.38;1.58;;;;;;;1.92;100.00;93011.31;5050951;28;20041;-77
2023/01/18 09:23:35;;;;;;;4.25;1.10;;;;;;;2.07;100.00;93013.72;5045584;28;20095;-77
2023/01/18 09:26:03;;;;;;;2.33;1.33;;;;;;;2.27;100.00;93022.31;5049373;28;20045;-72
2023/01/18 09:28:29;;;;;;;1.30;0.95;;;;;;;2.36;100.00;93025.84;5048552;28;20114;-73
2023/01/18 09:30:59;;;;;;;3.70;1.50;;;;;;;2.55;100.00;93029.22;5047367;28;20384;-73
2023/01/18 09:33:25;;;;;;;2.35;1.35;;;;;;;2.59;100.00;93038.00;5038631;28;20037;-76
2023/01/18 09:35:51;;;;;;;3.25;1.20;;;;;;;2.62;100.00;93033.31;5050415;28;20045;-76
2023/01/18 09:38:16;;;;;;;2.45;1.23;;;;;;;2.64;100.00;93031.19;5041014;28;20033;-77
2023/01/18 09:40:43;;;;;;;1.73;1.20;;;;;;;2.72;100.00;93049.53;5050345;28;20048;-77
2023/01/18 09:43:23;;;;;;;2.83;1.40;;;;;;;2.68;100.00;93042.59;5050228;28;20566;-76
2023/01/18 09:45:49;;;;;;;2.92;1.50;;;;;;;2.83;100.00;93042.38;5043503;28;20036;-76
2023/01/18 09:48:36;;;;;;;2.40;1.42;;;;;;;2.90;100.00;93050.59;5051052;28;20542;-77
2023/01/18 09:51:08;;;;;;;1.63;1.15;;;;;;;2.81;100.00;93057.47;5052910;28;20060;-78
2023/01/18 09:53:39;;;;;;;2.58;1.48;;;;;;;2.46;100.00;93075.03;5050689;28;20033;-78
2023/01/18 09:56:17;;;;;;;2.30;1.33;;;;;;;2.32;100.00;93079.38;5058387;28;20506;-76
2023/01/18 09:58:53;;;;;;;3.15;1.70;;;;;;;2.37;100.00;93074.09;5050456;28;20718;-78
2023/01/18 10:01:24;;;;;;;2.72;1.60;;;;;;;2.40;100.00;93078.75;5058117;28;20043;-78
2023/01/18 10:03:55;;;;;;;2.33;1.30;;;;;;;2.51;100.00;93080.16;5055156;28;20060;-77
2023/01/18 10:06:28;;;;;;;2.33;1.50;;;;;;;2.75;100.00;93089.75;5057782;28;20151;-78
2023/01/18 10:09:03;;;;;;;2.95;1.50;;;;;;;3.07;100.00;93090.88;5056416;28;20033;-77
2023/01/18 10:11:43;;;;;;;2.25;1.50;;;;;;;3.07;100.00;93101.28;5053053;28;20132;-77
2023/01/18 10:14:11;;;;;;;4.72;1.95;;;;;;;2.83;100.00;93091.72;5051118;28;20037;-78
2023/01/18 10:16:37;;;;;;;2.40;1.60;;;;;;;2.77;100.00;93098.81;5052765;28;20044;-77
2023/01/18 10:19:13;;;;;;;4.20;1.50;;;;;;;2.48;100.00;93101.50;5052440;28;20037;-77
2023/01/18 10:22:07;;;;;;;2.10;1.50;;;;;;;2.53;100.00;93109.22;5051938;28;20041;-76
2023/01/18 10:24:42;;;;;;;8.57;2.08;;;;;;;3.04;100.00;93112.25;5050597;28;20041;-76
2023/01/18 10:27:43;;;;;;;3.05;1.50;;;;;;;2.76;100.00;93123.25;5048218;28;20044;-77
2023/01/18 10:30:49;;;;;;;3.65;1.60;;;;;;;2.35;100.00;93133.31;5002841;28;20069;-77
2023/01/18 10:33:20;;;;;;;2.38;1.45;;;;;;;2.19;100.00;93136.06;5039203;28;20042;-77
2023/01/18 10:35:49;;;;;;;3.88;1.55;;;;;;;2.23;100.00;93133.69;5047400;28;20039;-78
2023/01/18 10:38:19;;;;;;;1.40;1.30;;;;;;;2.10;100.00;93140.31;5047256;28;20048;-79
2023/01/18 10:40:54;;;;;;;2.55;1.48;;;;;;;2.13;100.00;93137.16;5042604;28;20064;-77
2023/01/18 10:43:23;;;;;;;2.30;1.65;;;;;;;2.34;100.00;93142.13;5039521;28;20033;-77
2023/01/18 10:45:52;;;;;;;5.10;1.80;;;;;;;2.53;100.00;93137.78;5041512;28;20444;-76
2023/01/18 10:48:24;;;;;;;2.67;1.60;;;;;;;2.46;100.00;93145.13;5048395;28;20044;-76
2023/01/18 10:50:52;;;;;;;1.95;1.30;;;;;;;2.35;100.00;93148.88;5041181;28;20041;-75
2023/01/18 10:53:32;;;;;;;4.07;1.40;;;;;;;2.30;100.00;93152.31;5044317;28;20060;-77
2023/01/18 10:56:11;;;;;;;1.88;1.30;;;;;;;2.47;100.00;93157.06;5043019;28;20383;-77
2023/01/18 10:58:51;;;;;;;1.52;1.13;;;;;;;2.41;100.00;93158.16;5046060;28;20048;-76
2023/01/18 11:01:16;;;;;;;1.55;1.20;;;;;;;2.65;100.00;93155.56;5043094;28;20556;-77
2023/01/18 11:03:51;;;;;;;1.65;1.30;;;;;;;2.62;100.00;93157.97;5048723;28;20037;-77
2023/01/18 11:06:19;;;;;;;1.63;1.45;;;;;;;2.35;100.00;93164.47;5044399;28;20033;-77
2023/01/18 11:08:49;;;;;;;2.30;1.50;;;;;;;2.05;100.00;93166.28;5045607;28;20056;-74
2023/01/18 11:12:32;;;;;;;2.25;1.40;;;;;;;1.88;100.00;93180.44;5051718;28;20072;-75
2023/01/18 11:14:40;;;;;;;2.33;1.52;;;;;;;1.98;100.00;93186.59;5048952;28;20049;-76
2023/01/18 11:17:11;;;;;;;1.35;1.20;;;;;;;2.00;100.00;93194.88;5045893;28;20049;-78
2023/01/18 11:19:37;;;;;;;2.08;1.50;;;;;;;1.99;100.00;93204.47;5048112;28;20037;-77
2023/01/18 11:22:11;;;;;;;1.60;1.30;;;;;;;1.82;100.00;93204.09;5043713;28;20052;-76
2023/01/18 11:24:37;;;;;;;4.32;1.35;;;;;;;1.81;100.00;93208.50;5053460;28;20060;-77
2023/01/18 11:27:12;;;;;;;2.45;1.40;;;;;;;1.80;100.00;93212.13;5047114;28;20126;-76
2023/01/18 11:29:44;;;;;;;3.97;1.50;;;;;;;1.83;100.00;93216.78;5043610;28;20041;-76
2023/01/18 11:32:23;;;;;;;1.98;1.45;;;;;;;1.77;100.00;93217.88;5053430;28;20063;-76
2023/01/18 11:34:53;;;;;;;1.90;1.45;;;;;;;1.68;100.00;93216.88;5045829;28;20639;-76
2023/01/18 11:37:42;;;;;;;2.80;1.77;;;;;;;1.70;100.00;93212.22;5041268;28;20045;-76
2023/01/18 11:40:33;;;;;;;1.52;1.23;;;;;;;1.73;100.00;93222.03;5048828;28;20033;-76
2023/01/18 11:43:11;;;;;;;3.05;1.75;;;;;;;2.58;100.00;93215.63;5051183;28;20114;-77
2023/01/18 11:45:49;;;;;;;2.33;1.35;;;;;;;2.30;100.00;93224.19;5047841;28;20059;-76
2023/01/18 11:48:29;;;;;;;3.53;1.90;;;;;;;2.22;100.00;93223.72;5059921;28;20406;-77
2023/01/18 11:51:06;;;;;;;2.83;1.58;;;;;;;2.07;100.00;93226.47;5037606;28;20140;-77
2023/01/18 11:53:42;;;;;;;2.17;1.60;;;;;;;1.98;100.00;93238.47;5048302;28;20045;-77
2023/01/18 11:56:20;;;;;;;3.08;1.70;;;;;;;1.85;100.00;93240.63;5038359;28;20045;-75
2023/01/18 11:58:48;;;;;;;2.20;1.50;;;;;;;1.58;100.00;93246.25;5052858;28;20033;-77
2023/01/18 12:01:20;;;;;;;3.95;1.85;;;;;;;1.55;100.00;93247.56;5037665;28;20064;-76
2023/01/18 12:04:10;;;;;;;2.20;1.55;;;;;;;1.50;100.00;93250.16;5038418;28;20041;-75
2023/01/18 12:07:02;;;;;;;5.65;2.05;;;;;;;2.19;100.00;93258.03;5055448;28;20313;-76
2023/01/18 12:09:49;;;;;;;3.42;2.13;;;;;;;2.05;100.00;93260.47;5047517;28;20041;-76
2023/01/18 12:12:22;;;;;;;2.67;1.95;;;;;;;1.73;100.00;93258.34;5053599;28;20053;-74